Main page
METAR-TAF:

METAR-TAF

Airports :

Hamad International Airport

Doha, Qatar

latitude: 25-16-23N, longitude: 51-36-29E, elevation: 4 m

Current weather observation

The report was made 50 minutes ago, at 09:00 UTC
Wind 14 kt from the North
Temperature 29°C
Humidity 66%
Pressure 1017 hPa
Visibility 10 km or more
Few clouds at a height of 2500 ft
Scattered clouds at a height of 12000 ft

METAR: OTHH 170900Z 36014KT 9999 FEW025 SCT120 29/22 Q1017 NOSIG

Time: 12:50 (09:50 UTC)

Forecast

The report was made 4 hours and 51 minutes ago, at 04:59 UTC
Forecast valid from 17 at 06 UTC to 18 at 12 UTC
Wind 17 kt from the North/Northwest
Visibility: 8000 m
Few clouds at a height of 3000 ft
Scattered clouds at a height of 10000 ft
Probability 30% :
Temporary
from 17 at 08 UTC to 17 at 14 UTC
Visibility: 5000 m
Few clouds at a height of 3500 ft, Cumulonimbus.
light rain

TAF: OTHH 170459Z 1706/1812 34017KT 8000 FEW030 SCT100 PROB30 TEMPO 1708/1714 5000 -RA FEW035CB

Weather observations and forecasts of more than 4000 airports (METAR and TAF reports).

The available stations are represented by yellow and red dots on the map.

Hover mouse over dot to see the name of the station.

Then click to see weather observations and forecasts.

To change the map : click on the green buttons with a black cross to zoom in, on the green button with a dash to zoom out, or on the green arrows for adjacent maps.


METAR-TAF: